createdAt,value
2018-12-23T00:00:06.316Z,2.10
2018-12-23T00:02:34.970Z,1.30
2018-12-23T00:05:11.286Z,1.60
2018-12-23T00:07:34.144Z,1.70
2018-12-23T00:10:02.589Z,2.63
2018-12-23T00:12:31.171Z,1.53
2018-12-23T00:14:59.455Z,3.93
2018-12-23T00:17:27.750Z,1.87
2018-12-23T00:19:55.995Z,2.00
2018-12-23T00:22:25.410Z,1.93
2018-12-23T00:24:54.089Z,1.50
2018-12-23T00:27:22.760Z,1.90
2018-12-23T00:29:51.196Z,1.63
2018-12-23T00:32:19.794Z,1.70
2018-12-23T00:34:48.517Z,1.90
2018-12-23T00:37:17.202Z,2.00
2018-12-23T00:39:45.687Z,1.83
2018-12-23T00:42:14.279Z,1.80
2018-12-23T00:44:42.666Z,1.60
2018-12-23T00:47:11.146Z,1.53
2018-12-23T00:49:40.951Z,2.37
2018-12-23T00:52:09.533Z,1.57
2018-12-23T00:54:38.057Z,1.67
2018-12-23T00:57:06.964Z,1.30
2018-12-23T00:59:35.742Z,1.30
2018-12-23T01:02:04.591Z,1.50
2018-12-23T01:04:32.846Z,1.63
2018-12-23T01:07:01.440Z,1.53
2018-12-23T01:09:29.941Z,2.03
2018-12-23T01:11:58.531Z,1.23
2018-12-23T01:14:26.890Z,1.57
2018-12-23T01:16:55.518Z,1.40
2018-12-23T01:19:23.854Z,1.07
2018-12-23T01:21:52.238Z,1.10
2018-12-23T01:24:20.618Z,1.30
2018-12-23T01:26:49.138Z,1.23
2018-12-23T01:29:17.566Z,0.97
2018-12-23T01:31:46.234Z,1.17
2018-12-23T01:34:14.735Z,1.20
2018-12-23T01:36:43.521Z,0.97
2018-12-23T01:39:11.902Z,1.30
2018-12-23T01:41:40.166Z,1.20
2018-12-23T01:44:08.615Z,0.90
2018-12-23T01:46:38.454Z,0.93
2018-12-23T01:49:07.047Z,1.40
2018-12-23T01:51:35.750Z,1.37
2018-12-23T01:54:04.210Z,1.07
2018-12-23T01:56:32.861Z,0.67
2018-12-23T01:59:01.239Z,0.87
2018-12-23T02:01:29.778Z,1.20
2018-12-23T02:03:58.323Z,1.27
2018-12-23T02:06:27.062Z,0.87
2018-12-23T02:08:55.484Z,1.40
2018-12-23T02:11:23.954Z,1.30
2018-12-23T02:13:52.743Z,0.97
2018-12-23T02:16:22.829Z,0.60
2018-12-23T02:18:52.424Z,0.80
2018-12-23T02:21:20.748Z,1.17
2018-12-23T02:23:49.039Z,0.90
2018-12-23T02:26:17.659Z,1.40
2018-12-23T02:28:46.398Z,1.20
2018-12-23T02:31:14.757Z,0.97
2018-12-23T02:33:43.207Z,0.70
2018-12-23T02:36:11.691Z,1.30
2018-12-23T02:38:40.181Z,0.60
2018-12-23T02:41:08.586Z,1.00
2018-12-23T02:43:37.061Z,0.87
2018-12-23T02:46:05.392Z,1.27
2018-12-23T02:48:33.942Z,1.00
2018-12-23T02:51:02.283Z,1.40
2018-12-23T02:53:30.735Z,1.47
2018-12-23T02:55:59.138Z,0.70
2018-12-23T02:58:27.511Z,0.87
2018-12-23T03:00:55.839Z,1.10
2018-12-23T03:03:24.163Z,0.77
2018-12-23T03:05:52.520Z,1.17
2018-12-23T03:08:20.915Z,1.30
2018-12-23T03:10:49.270Z,1.13
2018-12-23T03:13:17.558Z,1.10
2018-12-23T03:15:46.154Z,1.17
2018-12-23T03:18:14.810Z,1.13
2018-12-23T03:20:43.182Z,1.00
2018-12-23T03:23:11.723Z,1.10
2018-12-23T03:25:39.989Z,1.00
2018-12-23T03:28:08.529Z,0.83
2018-12-23T03:30:37.048Z,1.17
2018-12-23T03:33:05.431Z,1.10
2018-12-23T03:35:33.902Z,1.40
2018-12-23T03:38:02.354Z,0.90
2018-12-23T03:40:31.013Z,1.03
2018-12-23T03:42:59.391Z,1.03
2018-12-23T03:45:28.052Z,1.60
2018-12-23T03:47:56.525Z,1.07
2018-12-23T03:50:27.861Z,0.77
2018-12-23T03:52:56.213Z,1.97
2018-12-23T03:55:24.944Z,1.40
2018-12-23T03:57:53.439Z,1.90
2018-12-23T04:00:22.099Z,1.40
2018-12-23T04:02:50.335Z,1.10
2018-12-23T04:05:18.778Z,2.77
2018-12-23T04:07:47.203Z,1.30
2018-12-23T04:10:15.863Z,1.50
2018-12-23T04:12:44.763Z,2.20
2018-12-23T04:15:13.174Z,1.27
2018-12-23T04:17:41.780Z,2.00
2018-12-23T04:20:10.390Z,1.77
2018-12-23T04:22:38.999Z,1.90
2018-12-23T04:25:07.593Z,1.93
2018-12-23T04:27:35.903Z,1.70
2018-12-23T04:30:05.396Z,2.00
2018-12-23T04:32:33.782Z,1.50
2018-12-23T04:35:02.074Z,1.83
2018-12-23T04:37:30.262Z,3.77
2018-12-23T04:39:58.823Z,2.23
2018-12-23T04:42:27.060Z,2.03
2018-12-23T04:44:55.748Z,2.10
2018-12-23T04:47:24.219Z,1.83
2018-12-23T04:49:52.548Z,2.23
2018-12-23T04:52:20.838Z,1.83
2018-12-23T04:54:49.162Z,1.97
2018-12-23T04:57:17.492Z,1.93
2018-12-23T04:59:46.179Z,2.50
2018-12-23T05:02:14.698Z,1.73
2018-12-23T05:04:43.211Z,5.13
2018-12-23T05:07:11.659Z,7.00
2018-12-23T05:09:40.560Z,5.23
2018-12-23T05:12:08.807Z,7.50
2018-12-23T05:14:37.222Z,7.70
2018-12-23T05:17:05.906Z,6.30
2018-12-23T05:19:34.250Z,5.70
2018-12-23T05:22:02.656Z,4.57
2018-12-23T05:24:31.190Z,6.93
2018-12-23T05:26:59.668Z,4.73
2018-12-23T05:29:28.037Z,5.87
2018-12-23T05:31:56.536Z,4.90
2018-12-23T05:34:24.994Z,3.90
2018-12-23T05:36:53.599Z,3.17
2018-12-23T05:39:22.158Z,3.10
2018-12-23T05:41:50.511Z,2.37
2018-12-23T05:44:18.918Z,2.30
2018-12-23T05:46:47.474Z,2.50
2018-12-23T05:49:15.985Z,2.37
2018-12-23T05:51:44.402Z,2.77
2018-12-23T05:54:13.531Z,4.10
2018-12-23T05:56:42.526Z,4.20
2018-12-23T05:59:11.877Z,3.87
2018-12-23T06:01:40.198Z,4.30
2018-12-23T06:04:08.615Z,3.90
2018-12-23T06:06:37.087Z,3.57
2018-12-23T06:09:07.264Z,2.70
2018-12-23T06:11:35.946Z,3.67
2018-12-23T06:14:04.503Z,4.50
2018-12-23T06:16:33.519Z,2.90
2018-12-23T06:19:02.031Z,2.77
2018-12-23T06:21:30.723Z,2.10
2018-12-23T06:23:59.544Z,2.50
2018-12-23T06:26:27.962Z,2.77
2018-12-23T06:28:57.674Z,3.97
2018-12-23T06:31:26.106Z,2.50
2018-12-23T06:33:55.567Z,3.20
2018-12-23T06:36:24.145Z,3.03
2018-12-23T06:38:52.706Z,2.67
2018-12-23T06:41:21.398Z,2.67
2018-12-23T06:43:49.932Z,2.60
2018-12-23T06:46:18.103Z,2.43
2018-12-23T06:48:46.293Z,2.70
2018-12-23T06:51:14.775Z,2.10
2018-12-23T06:53:43.178Z,4.90
2018-12-23T06:56:11.636Z,4.20
2018-12-23T06:58:39.940Z,3.10
2018-12-23T07:01:08.434Z,4.57
2018-12-23T07:03:37.001Z,9.17
2018-12-23T07:06:05.638Z,6.20
2018-12-23T07:08:34.148Z,12.63
2018-12-23T07:11:02.659Z,10.63
2018-12-23T07:13:31.066Z,11.00
2018-12-23T07:15:59.382Z,4.90
2018-12-23T07:18:27.837Z,2.90
2018-12-23T07:20:56.071Z,2.70
2018-12-23T07:23:24.323Z,2.83
2018-12-23T07:25:52.625Z,2.47
2018-12-23T07:28:20.858Z,3.00
2018-12-23T07:30:49.242Z,2.97
2018-12-23T07:33:17.784Z,4.23
2018-12-23T07:35:46.266Z,6.03
2018-12-23T07:38:14.584Z,8.00
2018-12-23T07:40:43.057Z,37.80
2018-12-23T07:43:11.280Z,42.87
2018-12-23T07:45:39.536Z,36.90
2018-12-23T07:48:07.830Z,9.50
2018-12-23T07:50:36.264Z,21.13
2018-12-23T07:53:04.551Z,59.37
2018-12-23T07:55:32.857Z,19.07
2018-12-23T07:58:01.728Z,5.97
2018-12-23T08:00:30.254Z,3.67
2018-12-23T08:02:59.342Z,3.20
2018-12-23T08:05:27.795Z,2.70
2018-12-23T08:07:56.006Z,3.07
2018-12-23T08:10:24.283Z,4.07
2018-12-23T08:12:52.454Z,2.87
2018-12-23T08:15:20.844Z,3.93
2018-12-23T08:17:49.115Z,3.93
2018-12-23T08:20:17.523Z,2.97
2018-12-23T08:22:45.925Z,3.63
2018-12-23T08:25:14.231Z,3.27
2018-12-23T08:27:42.619Z,3.70
2018-12-23T08:30:11.010Z,2.80
2018-12-23T08:32:39.449Z,19.73
2018-12-23T08:35:08.117Z,19.17
2018-12-23T08:37:44.425Z,59.87
2018-12-23T08:40:06.591Z,74.87
2018-12-23T08:42:34.855Z,112.93
2018-12-23T08:45:03.277Z,50.30
2018-12-23T08:47:31.795Z,9.77
2018-12-23T08:49:59.979Z,14.23
2018-12-23T08:52:28.243Z,9.10
2018-12-23T08:54:56.531Z,7.83
2018-12-23T08:57:24.822Z,10.57
2018-12-23T08:59:53.094Z,11.17
2018-12-23T09:02:21.322Z,9.80
2018-12-23T09:04:49.623Z,4.77
2018-12-23T09:07:17.922Z,3.80
2018-12-23T09:09:46.219Z,4.33
2018-12-23T09:12:14.571Z,4.20
2018-12-23T09:14:42.754Z,4.37
2018-12-23T09:17:10.927Z,3.40
2018-12-23T09:19:39.510Z,3.10
2018-12-23T09:22:07.735Z,13.17
2018-12-23T09:24:35.972Z,5.60
2018-12-23T09:27:04.331Z,6.00
2018-12-23T09:29:32.607Z,3.27
2018-12-23T09:32:00.871Z,3.37
2018-12-23T09:34:29.119Z,4.40
2018-12-23T09:36:57.383Z,5.43
2018-12-23T09:39:25.986Z,4.47
2018-12-23T09:41:54.293Z,4.73
2018-12-23T09:44:22.672Z,2.70
2018-12-23T09:46:51.408Z,3.27
2018-12-23T09:49:19.746Z,3.33
2018-12-23T09:51:48.047Z,3.20
2018-12-23T09:54:16.574Z,3.27
2018-12-23T09:56:44.950Z,3.10
2018-12-23T09:59:13.162Z,1.97
2018-12-23T10:01:41.334Z,4.60
2018-12-23T10:04:09.610Z,3.03
2018-12-23T10:06:38.037Z,3.07
2018-12-23T10:09:07.034Z,5.73
2018-12-23T10:11:35.290Z,9.53
2018-12-23T10:14:03.784Z,3.80
2018-12-23T10:16:32.243Z,2.47
2018-12-23T10:19:00.552Z,3.57
2018-12-23T10:21:28.782Z,3.30
2018-12-23T10:23:56.985Z,4.00
2018-12-23T10:26:25.233Z,3.87
2018-12-23T10:28:53.972Z,4.40
2018-12-23T10:31:22.310Z,4.70
2018-12-23T10:33:50.558Z,5.83
2018-12-23T10:36:18.910Z,2.60
2018-12-23T10:38:47.222Z,2.87
2018-12-23T10:41:15.844Z,3.00
2018-12-23T10:43:44.506Z,2.53
2018-12-23T10:46:12.786Z,2.70
2018-12-23T10:48:41.346Z,2.33
2018-12-23T10:51:09.534Z,2.63
2018-12-23T10:53:37.722Z,2.67
2018-12-23T10:56:06.139Z,2.80
2018-12-23T10:58:34.399Z,3.13
2018-12-23T11:01:02.777Z,2.67
2018-12-23T11:03:30.948Z,2.83
2018-12-23T11:05:59.855Z,3.00
2018-12-23T11:08:28.356Z,3.90
2018-12-23T11:10:56.742Z,2.53
2018-12-23T11:13:24.986Z,2.27
2018-12-23T11:15:53.190Z,3.07
2018-12-23T11:18:21.524Z,2.03
2018-12-23T11:20:49.884Z,1.70
2018-12-23T11:23:18.134Z,1.90
2018-12-23T11:25:46.907Z,2.47
2018-12-23T11:28:15.149Z,1.90
2018-12-23T11:30:43.507Z,1.60
2018-12-23T11:33:11.801Z,1.37
2018-12-23T11:35:40.093Z,1.53
2018-12-23T11:38:08.574Z,2.73
2018-12-23T11:40:36.870Z,2.37
2018-12-23T11:43:05.227Z,1.43
2018-12-23T11:45:33.651Z,1.73
2018-12-23T11:48:01.844Z,1.50
2018-12-23T11:50:30.369Z,1.70
2018-12-23T11:52:58.743Z,1.70
2018-12-23T11:55:27.059Z,3.27
2018-12-23T11:57:55.453Z,2.07
2018-12-23T12:00:23.728Z,3.40
2018-12-23T12:02:51.962Z,3.50
2018-12-23T12:05:20.230Z,8.47
2018-12-23T12:07:48.502Z,3.73
2018-12-23T12:10:16.839Z,6.93
2018-12-23T12:12:45.156Z,2.60
2018-12-23T12:15:13.410Z,2.30
2018-12-23T12:17:41.652Z,3.00
2018-12-23T12:20:10.054Z,2.70
2018-12-23T12:22:38.287Z,1.90
2018-12-23T12:25:06.766Z,1.70
2018-12-23T12:27:35.360Z,1.67
2018-12-23T12:30:03.790Z,1.50
2018-12-23T12:32:32.314Z,2.37
2018-12-23T12:35:00.770Z,3.07
2018-12-23T12:37:29.038Z,13.23
2018-12-23T12:39:57.290Z,12.97
2018-12-23T12:42:25.554Z,31.50
2018-12-23T12:44:54.051Z,19.03
2018-12-23T12:48:08.313Z,8.43
2018-12-23T12:50:49.236Z,9.30
2018-12-23T12:53:30.693Z,17.23
2018-12-23T12:56:12.141Z,8.10
2018-12-23T12:58:53.052Z,4.37
2018-12-23T13:01:34.709Z,23.03
2018-12-23T13:04:15.537Z,39.43
2018-12-23T13:06:56.388Z,11.37
2018-12-23T13:09:37.487Z,29.43
2018-12-23T13:12:18.478Z,65.13
2018-12-23T13:14:59.185Z,6.67
2018-12-23T13:17:40.451Z,3.10
2018-12-23T13:20:21.284Z,8.37
2018-12-23T13:23:02.036Z,8.60
2018-12-23T13:25:42.776Z,15.60
2018-12-23T13:28:24.372Z,55.83
2018-12-23T13:31:05.274Z,22.00
2018-12-23T13:33:46.854Z,11.00
2018-12-23T13:36:28.437Z,6.73
2018-12-23T13:39:09.458Z,4.40
2018-12-23T13:41:50.577Z,2.63
2018-12-23T13:44:31.552Z,4.30
2018-12-23T13:47:32.470Z,2.20
2018-12-23T13:50:23.204Z,2.60
2018-12-23T13:53:30.742Z,1.37
2018-12-23T13:56:38.264Z,1.03
2018-12-23T13:59:45.793Z,1.93
2018-12-23T14:06:07.393Z,0.93
2018-12-23T14:09:17.343Z,0.90
2018-12-23T14:12:05.156Z,0.67
2018-12-23T14:15:12.462Z,0.60
2018-12-23T14:18:01.081Z,0.70
2018-12-23T14:20:49.596Z,1.20
2018-12-23T14:23:37.968Z,0.80
2018-12-23T14:29:35.449Z,1.13
2018-12-23T14:32:23.887Z,1.10
2018-12-23T14:35:12.299Z,0.77
2018-12-23T14:37:53.865Z,0.70
2018-12-23T14:40:34.548Z,0.40
2018-12-23T14:43:15.956Z,0.50
2018-12-23T14:45:57.133Z,0.60
2018-12-23T14:48:38.147Z,0.80
2018-12-23T14:51:19.260Z,0.60
2018-12-23T14:54:00.466Z,0.90
2018-12-23T14:56:41.277Z,0.73
2018-12-23T14:59:22.252Z,0.40
2018-12-23T15:02:03.845Z,0.60
2018-12-23T15:04:44.856Z,0.50
2018-12-23T15:07:25.624Z,0.47
2018-12-23T15:10:06.418Z,0.63
2018-12-23T15:12:47.376Z,0.70
2018-12-23T15:15:28.517Z,0.77
2018-12-23T15:18:09.348Z,0.83
2018-12-23T15:20:50.089Z,0.60
2018-12-23T15:23:31.056Z,1.70
2018-12-23T15:26:11.825Z,0.60
2018-12-23T15:28:52.614Z,1.83
2018-12-23T15:31:34.207Z,3.70
2018-12-23T15:34:14.953Z,2.00
2018-12-23T15:36:56.013Z,4.87
2018-12-23T15:39:42.551Z,4.07
2018-12-23T15:42:19.776Z,2.47
2018-12-23T15:45:00.977Z,4.73
2018-12-23T15:47:41.673Z,1.40
2018-12-23T15:50:23.043Z,1.17
2018-12-23T15:53:03.896Z,1.57
2018-12-23T15:55:45.809Z,4.63
2018-12-23T15:58:26.705Z,3.60
2018-12-23T16:01:07.947Z,1.73
2018-12-23T16:03:49.004Z,1.87
2018-12-23T16:06:30.278Z,5.07
2018-12-23T16:09:11.142Z,1.47
2018-12-23T16:11:41.001Z,0.83
2018-12-23T16:14:48.315Z,0.83
2018-12-23T16:17:36.795Z,1.03
2018-12-23T16:20:25.348Z,2.10
2018-12-23T16:23:14.005Z,2.60
2018-12-23T16:29:32.555Z,1.43
2018-12-23T16:31:41.248Z,3.87
2018-12-23T16:37:29.560Z,6.33
2018-12-23T16:40:10.903Z,9.53
2018-12-23T16:42:52.092Z,6.63
2018-12-23T16:45:33.816Z,13.10
2018-12-23T16:48:14.930Z,18.17
2018-12-23T16:50:55.641Z,3.50
2018-12-23T16:53:36.525Z,3.83
2018-12-23T16:56:18.041Z,3.83
2018-12-23T16:58:59.094Z,4.07
2018-12-23T17:01:40.237Z,1.00
2018-12-23T17:04:21.585Z,0.90
2018-12-23T17:07:02.403Z,0.63
2018-12-23T17:09:43.576Z,1.20
2018-12-23T17:12:24.377Z,1.03
2018-12-23T17:15:05.263Z,1.10
2018-12-23T17:17:46.316Z,1.13
2018-12-23T17:20:27.259Z,0.60
2018-12-23T17:23:08.212Z,1.10
2018-12-23T17:25:49.501Z,1.10
2018-12-23T17:28:30.291Z,0.57
2018-12-23T17:31:12.161Z,0.90
2018-12-23T17:33:53.280Z,0.60
2018-12-23T17:36:34.273Z,0.60
2018-12-23T17:39:15.031Z,0.90
2018-12-23T17:41:56.115Z,0.60
2018-12-23T17:44:37.265Z,0.60
2018-12-23T17:47:18.265Z,0.70
2018-12-23T17:50:00.171Z,1.53
2018-12-23T17:52:40.937Z,8.73
2018-12-23T17:55:20.652Z,1.10
2018-12-23T18:01:18.099Z,0.90
2018-12-23T18:07:32.979Z,0.70
2018-12-23T18:10:33.322Z,0.60
2018-12-23T18:13:14.080Z,0.60
2018-12-23T18:19:10.018Z,0.47
2018-12-23T18:21:58.653Z,0.40
2018-12-23T18:24:59.050Z,1.20
2018-12-23T18:30:58.771Z,0.77
2018-12-23T18:36:35.181Z,1.13
2018-12-23T18:39:16.668Z,0.70
2018-12-23T18:41:57.492Z,1.43
2018-12-23T18:44:38.940Z,0.77
2018-12-23T18:47:19.932Z,1.30
2018-12-23T18:50:00.821Z,1.00
2018-12-23T18:52:41.640Z,1.63
2018-12-23T18:55:22.856Z,2.90
2018-12-23T18:58:03.707Z,1.40
2018-12-23T19:00:44.996Z,0.90
2018-12-23T19:03:26.445Z,1.10
2018-12-23T19:06:08.113Z,1.70
2018-12-23T19:08:49.742Z,1.97
2018-12-23T19:11:30.536Z,1.50
2018-12-23T19:14:11.747Z,1.10
2018-12-23T19:16:53.166Z,1.40
2018-12-23T19:19:34.736Z,1.43
2018-12-23T19:22:15.675Z,1.20
2018-12-23T19:24:56.414Z,0.80
2018-12-23T19:27:37.295Z,0.90
2018-12-23T19:30:18.396Z,1.27
2018-12-23T19:32:59.109Z,1.13
2018-12-23T19:35:41.161Z,1.10
2018-12-23T19:38:22.362Z,0.93
2018-12-23T19:41:03.112Z,1.03
2018-12-23T19:43:44.140Z,0.77
2018-12-23T19:46:57.941Z,1.03
2018-12-23T19:50:12.371Z,1.10
2018-12-23T19:53:19.895Z,0.90
2018-12-23T19:56:27.444Z,1.10
2018-12-23T19:59:34.958Z,1.00
2018-12-23T20:02:45.670Z,0.80
2018-12-23T20:06:07.158Z,0.90
2018-12-23T20:09:14.739Z,0.50
2018-12-23T20:12:22.241Z,1.40
2018-12-23T20:15:29.684Z,1.20
2018-12-23T20:18:37.192Z,1.43
2018-12-23T20:22:03.670Z,1.23
2018-12-23T20:28:39.601Z,0.80
2018-12-23T20:31:47.119Z,0.80
2018-12-23T20:34:54.733Z,1.23
2018-12-23T20:37:36.168Z,0.87
2018-12-23T20:40:17.029Z,0.70
2018-12-23T20:42:59.680Z,0.80
2018-12-23T20:45:40.666Z,0.90
2018-12-23T20:48:21.560Z,0.63
2018-12-23T20:51:03.807Z,1.47
2018-12-23T20:53:45.325Z,0.70
2018-12-23T20:56:26.259Z,0.80
2018-12-23T20:59:07.765Z,0.90
2018-12-23T21:05:15.216Z,1.10
2018-12-23T21:08:41.641Z,0.80
2018-12-23T21:11:49.323Z,1.10
2018-12-23T21:14:56.835Z,1.50
2018-12-23T21:18:04.491Z,1.60
2018-12-23T21:24:42.969Z,1.10
2018-12-23T21:27:50.516Z,0.90
2018-12-23T21:30:58.024Z,1.00
2018-12-23T21:34:05.571Z,0.80
2018-12-23T21:36:46.523Z,0.60
2018-12-23T21:40:01.960Z,0.60
2018-12-23T21:43:03.613Z,0.70
2018-12-23T21:46:19.099Z,0.70
2018-12-23T21:49:07.687Z,0.60
2018-12-23T21:52:26.573Z,0.77
2018-12-23T21:55:31.886Z,0.83
2018-12-23T21:58:32.688Z,0.80
2018-12-23T22:01:43.196Z,0.60
2018-12-23T22:04:41.232Z,0.63
2018-12-23T22:07:46.786Z,0.30
2018-12-23T22:10:45.224Z,0.60
2018-12-23T22:13:28.161Z,0.63
2018-12-23T22:15:57.732Z,0.87
2018-12-23T22:18:28.026Z,0.40
2018-12-23T22:20:57.884Z,0.30
2018-12-23T22:23:28.824Z,0.10
2018-12-23T22:26:00.689Z,0.30
2018-12-23T22:28:30.566Z,0.40
2018-12-23T22:31:00.252Z,0.30
2018-12-23T22:33:29.740Z,0.40
2018-12-23T22:35:59.385Z,0.30
2018-12-23T22:38:29.335Z,0.20
2018-12-23T22:41:11.275Z,0.30
2018-12-23T22:43:43.123Z,0.10
2018-12-23T22:46:12.972Z,0.20
2018-12-23T22:48:42.667Z,0.20
2018-12-23T22:51:14.020Z,0.10
2018-12-23T22:53:43.577Z,0.20
2018-12-23T22:56:13.224Z,0.30
2018-12-23T22:58:44.322Z,0.27
2018-12-23T23:01:14.036Z,0.30
2018-12-23T23:03:44.183Z,0.20
2018-12-23T23:06:13.853Z,0.37
2018-12-23T23:08:43.681Z,0.23
2018-12-23T23:11:13.383Z,0.10
2018-12-23T23:13:42.859Z,0.10
2018-12-23T23:16:12.578Z,0.30
2018-12-23T23:18:42.284Z,0.30
2018-12-23T23:21:11.973Z,0.20
2018-12-23T23:23:41.333Z,0.30
2018-12-23T23:26:10.757Z,0.30
2018-12-23T23:28:40.920Z,0.40
2018-12-23T23:31:10.402Z,0.30
2018-12-23T23:33:40.192Z,0.20
2018-12-23T23:36:09.528Z,0.10
2018-12-23T23:38:39.384Z,0.10
2018-12-23T23:41:09.205Z,0.30
2018-12-23T23:43:39.056Z,0.30
2018-12-23T23:46:11.133Z,0.20
2018-12-23T23:48:41.139Z,0.10
2018-12-23T23:51:10.569Z,0.00
2018-12-23T23:53:41.741Z,0.60
2018-12-23T23:56:12.436Z,0.10
2018-12-23T23:58:42.321Z,0.30
